sensor_id;sensor_type;location;lat;lon;timestamp;temperature;humidity
51557;DHT22;38766;53.194;5.532;2022-10-31T00:01:10;13.10;99.90
51557;DHT22;38766;53.194;5.532;2022-10-31T00:03:35;13.00;99.90
51557;DHT22;38766;53.194;5.532;2022-10-31T00:06:01;13.10;99.90
51557;DHT22;38766;53.194;5.532;2022-10-31T00:08:27;13.00;99.90
51557;DHT22;38766;53.194;5.532;2022-10-31T00:10:52;13.00;99.90
51557;DHT22;38766;53.194;5.532;2022-10-31T00:13:18;12.90;99.90
51557;DHT22;38766;53.194;5.532;2022-10-31T00:15:43;12.90;99.90
51557;DHT22;38766;53.194;5.532;2022-10-31T00:18:09;12.90;99.90
51557;DHT22;38766;53.194;5.532;2022-10-31T00:20:36;12.90;99.90
51557;DHT22;38766;53.194;5.532;2022-10-31T00:23:03;12.80;99.90
51557;DHT22;38766;53.194;5.532;2022-10-31T00:25:36;12.90;99.90
51557;DHT22;38766;53.194;5.532;2022-10-31T00:28:04;12.80;99.90
51557;DHT22;38766;53.194;5.532;2022-10-31T00:30:30;12.80;99.90
51557;DHT22;38766;53.194;5.532;2022-10-31T00:32:56;12.80;99.90
51557;DHT22;38766;53.194;5.532;2022-10-31T00:35:21;12.70;99.90
51557;DHT22;38766;53.194;5.532;2022-10-31T00:37:47;12.70;99.90
51557;DHT22;38766;53.194;5.532;2022-10-31T00:40:13;12.80;99.90
51557;DHT22;38766;53.194;5.532;2022-10-31T00:42:41;12.70;99.90
51557;DHT22;38766;53.194;5.532;2022-10-31T00:45:10;12.60;99.90
51557;DHT22;38766;53.194;5.532;2022-10-31T00:47:36;12.70;99.90
51557;DHT22;38766;53.194;5.532;2022-10-31T00:50:04;12.70;99.90
51557;DHT22;38766;53.194;5.532;2022-10-31T00:52:29;12.60;99.90
51557;DHT22;38766;53.194;5.532;2022-10-31T00:54:55;12.60;99.90
51557;DHT22;38766;53.194;5.532;2022-10-31T00:57:20;12.60;99.90
51557;DHT22;38766;53.194;5.532;2022-10-31T00:59:46;12.60;99.90
51557;DHT22;38766;53.194;5.532;2022-10-31T01:02:12;12.60;99.90
51557;DHT22;38766;53.194;5.532;2022-10-31T01:04:37;12.60;99.90
51557;DHT22;38766;53.194;5.532;2022-10-31T01:07:03;12.60;99.90
51557;DHT22;38766;53.194;5.532;2022-10-31T01:09:28;12.60;99.90
51557;DHT22;38766;53.194;5.532;2022-10-31T01:11:54;12.50;99.90
51557;DHT22;38766;53.194;5.532;2022-10-31T01:14:19;12.60;99.90
51557;DHT22;38766;53.194;5.532;2022-10-31T01:16:45;12.50;99.90
51557;DHT22;38766;53.194;5.532;2022-10-31T01:19:11;12.50;99.90
51557;DHT22;38766;53.194;5.532;2022-10-31T01:21:36;12.50;99.90
51557;DHT22;38766;53.194;5.532;2022-10-31T01:24:02;12.50;99.90
51557;DHT22;38766;53.194;5.532;2022-10-31T01:26:30;12.50;99.90
51557;DHT22;38766;53.194;5.532;2022-10-31T01:29:02;12.50;99.90
51557;DHT22;38766;53.194;5.532;2022-10-31T01:31:31;12.50;99.90
51557;DHT22;38766;53.194;5.532;2022-10-31T01:33:58;12.50;99.90
51557;DHT22;38766;53.194;5.532;2022-10-31T01:36:26;12.40;99.90
51557;DHT22;38766;53.194;5.532;2022-10-31T01:38:55;12.50;99.90
51557;DHT22;38766;53.194;5.532;2022-10-31T01:41:24;12.40;99.90
51557;DHT22;38766;53.194;5.532;2022-10-31T01:43:52;12.40;99.90
51557;DHT22;38766;53.194;5.532;2022-10-31T01:46:24;12.40;99.90
51557;DHT22;38766;53.194;5.532;2022-10-31T01:48:52;12.30;99.90
51557;DHT22;38766;53.194;5.532;2022-10-31T01:51:21;12.40;99.90
51557;DHT22;38766;53.194;5.532;2022-10-31T01:53:50;12.40;99.90
51557;DHT22;38766;53.194;5.532;2022-10-31T01:56:17;12.40;99.90
51557;DHT22;38766;53.194;5.532;2022-10-31T01:58:45;12.40;99.90
51557;DHT22;38766;53.194;5.532;2022-10-31T02:01:13;12.40;99.90
51557;DHT22;38766;53.194;5.532;2022-10-31T02:03:40;12.30;99.90
51557;DHT22;38766;53.194;5.532;2022-10-31T02:06:08;12.30;99.90
51557;DHT22;38766;53.194;5.532;2022-10-31T02:08:36;12.30;99.90
51557;DHT22;38766;53.194;5.532;2022-10-31T02:11:03;12.30;99.90
51557;DHT22;38766;53.194;5.532;2022-10-31T02:13:29;12.30;99.90
51557;DHT22;38766;53.194;5.532;2022-10-31T02:15:57;12.30;99.90
51557;DHT22;38766;53.194;5.532;2022-10-31T02:18:26;12.30;99.90
51557;DHT22;38766;53.194;5.532;2022-10-31T02:21:07;12.20;99.90
51557;DHT22;38766;53.194;5.532;2022-10-31T02:35:28;12.20;99.90
51557;DHT22;38766;53.194;5.532;2022-10-31T02:40:43;12.20;99.90
51557;DHT22;38766;53.194;5.532;2022-10-31T02:45:52;12.10;99.90
51557;DHT22;38766;53.194;5.532;2022-10-31T02:48:28;12.10;99.90
51557;DHT22;38766;53.194;5.532;2022-10-31T02:51:04;12.00;99.90
51557;DHT22;38766;53.194;5.532;2022-10-31T02:53:34;12.10;99.90
51557;DHT22;38766;53.194;5.532;2022-10-31T02:56:12;12.00;99.90
51557;DHT22;38766;53.194;5.532;2022-10-31T02:58:42;12.00;99.90
51557;DHT22;38766;53.194;5.532;2022-10-31T03:07:39;11.90;99.90
51557;DHT22;38766;53.194;5.532;2022-10-31T03:10:25;12.00;99.90
51557;DHT22;38766;53.194;5.532;2022-10-31T03:15:27;12.00;99.90
51557;DHT22;38766;53.194;5.532;2022-10-31T03:17:59;11.90;99.90
51557;DHT22;38766;53.194;5.532;2022-10-31T03:20:36;11.90;99.90
51557;DHT22;38766;53.194;5.532;2022-10-31T03:23:06;11.90;99.90
51557;DHT22;38766;53.194;5.532;2022-10-31T03:25:34;11.90;99.90
51557;DHT22;38766;53.194;5.532;2022-10-31T03:28:02;11.80;99.90
51557;DHT22;38766;53.194;5.532;2022-10-31T03:30:30;11.80;99.90
51557;DHT22;38766;53.194;5.532;2022-10-31T03:32:59;11.80;99.90
51557;DHT22;38766;53.194;5.532;2022-10-31T03:35:28;11.80;99.90
51557;DHT22;38766;53.194;5.532;2022-10-31T03:37:56;11.80;99.90
51557;DHT22;38766;53.194;5.532;2022-10-31T03:40:24;11.80;99.90
51557;DHT22;38766;53.194;5.532;2022-10-31T03:42:56;11.80;99.90
51557;DHT22;38766;53.194;5.532;2022-10-31T03:45:25;11.70;99.90
51557;DHT22;38766;53.194;5.532;2022-10-31T03:47:52;11.70;99.90
51557;DHT22;38766;53.194;5.532;2022-10-31T03:50:19;11.70;99.90
51557;DHT22;38766;53.194;5.532;2022-10-31T03:52:58;11.70;99.90
51557;DHT22;38766;53.194;5.532;2022-10-31T03:55:27;11.70;99.90
51557;DHT22;38766;53.194;5.532;2022-10-31T03:58:18;11.70;99.90
51557;DHT22;38766;53.194;5.532;2022-10-31T04:00:46;11.70;99.90
51557;DHT22;38766;53.194;5.532;2022-10-31T04:03:14;11.60;99.90
51557;DHT22;38766;53.194;5.532;2022-10-31T04:05:44;11.60;99.90
51557;DHT22;38766;53.194;5.532;2022-10-31T04:08:14;11.60;99.90
51557;DHT22;38766;53.194;5.532;2022-10-31T04:10:42;11.60;99.90
51557;DHT22;38766;53.194;5.532;2022-10-31T04:13:16;11.60;99.90
51557;DHT22;38766;53.194;5.532;2022-10-31T04:15:43;11.50;99.90
51557;DHT22;38766;53.194;5.532;2022-10-31T04:18:10;11.50;99.90
51557;DHT22;38766;53.194;5.532;2022-10-31T04:20:38;11.50;99.90
51557;DHT22;38766;53.194;5.532;2022-10-31T04:23:04;11.50;99.90
51557;DHT22;38766;53.194;5.532;2022-10-31T04:25:30;11.50;99.90
51557;DHT22;38766;53.194;5.532;2022-10-31T04:27:56;11.50;99.90
51557;DHT22;38766;53.194;5.532;2022-10-31T04:30:21;11.50;99.90
51557;DHT22;38766;53.194;5.532;2022-10-31T04:32:47;11.50;99.90
51557;DHT22;38766;53.194;5.532;2022-10-31T04:35:13;11.50;99.90
51557;DHT22;38766;53.194;5.532;2022-10-31T04:37:38;11.40;99.90
51557;DHT22;38766;53.194;5.532;2022-10-31T04:40:05;11.40;99.90
51557;DHT22;38766;53.194;5.532;2022-10-31T04:42:31;11.40;99.90
51557;DHT22;38766;53.194;5.532;2022-10-31T04:44:57;11.40;99.90
51557;DHT22;38766;53.194;5.532;2022-10-31T04:47:22;11.40;99.90
51557;DHT22;38766;53.194;5.532;2022-10-31T04:49:48;11.40;99.90
51557;DHT22;38766;53.194;5.532;2022-10-31T04:52:13;11.40;99.90
51557;DHT22;38766;53.194;5.532;2022-10-31T04:54:39;11.50;99.90
51557;DHT22;38766;53.194;5.532;2022-10-31T04:57:05;11.50;99.90
51557;DHT22;38766;53.194;5.532;2022-10-31T04:59:30;11.40;99.90
51557;DHT22;38766;53.194;5.532;2022-10-31T05:01:56;11.30;99.90
51557;DHT22;38766;53.194;5.532;2022-10-31T05:04:21;11.30;99.90
51557;DHT22;38766;53.194;5.532;2022-10-31T05:06:47;11.40;99.90
51557;DHT22;38766;53.194;5.532;2022-10-31T05:09:13;11.40;99.90
51557;DHT22;38766;53.194;5.532;2022-10-31T05:11:38;11.30;99.90
51557;DHT22;38766;53.194;5.532;2022-10-31T05:14:04;11.30;99.90
51557;DHT22;38766;53.194;5.532;2022-10-31T05:16:29;11.40;99.90
51557;DHT22;38766;53.194;5.532;2022-10-31T05:18:55;11.30;99.90
51557;DHT22;38766;53.194;5.532;2022-10-31T05:21:21;11.30;99.90
51557;DHT22;38766;53.194;5.532;2022-10-31T05:23:46;11.30;99.90
51557;DHT22;38766;53.194;5.532;2022-10-31T05:26:12;11.30;99.90
51557;DHT22;38766;53.194;5.532;2022-10-31T05:28:38;11.30;99.90
51557;DHT22;38766;53.194;5.532;2022-10-31T05:31:03;11.30;99.90
51557;DHT22;38766;53.194;5.532;2022-10-31T05:33:29;11.30;99.90
51557;DHT22;38766;53.194;5.532;2022-10-31T05:35:55;11.30;99.90
51557;DHT22;38766;53.194;5.532;2022-10-31T05:38:20;11.30;99.90
51557;DHT22;38766;53.194;5.532;2022-10-31T05:40:46;11.30;99.90
51557;DHT22;38766;53.194;5.532;2022-10-31T05:43:11;11.30;99.90
51557;DHT22;38766;53.194;5.532;2022-10-31T05:45:37;11.30;99.90
51557;DHT22;38766;53.194;5.532;2022-10-31T05:48:03;11.30;99.90
51557;DHT22;38766;53.194;5.532;2022-10-31T05:50:30;11.30;99.90
51557;DHT22;38766;53.194;5.532;2022-10-31T05:53:01;11.30;99.90
51557;DHT22;38766;53.194;5.532;2022-10-31T05:55:28;11.30;99.90
51557;DHT22;38766;53.194;5.532;2022-10-31T05:57:54;11.30;99.90
51557;DHT22;38766;53.194;5.532;2022-10-31T06:00:21;11.30;99.90
51557;DHT22;38766;53.194;5.532;2022-10-31T06:02:47;11.30;99.90
51557;DHT22;38766;53.194;5.532;2022-10-31T06:05:13;11.30;99.90
51557;DHT22;38766;53.194;5.532;2022-10-31T06:07:39;11.30;99.90
51557;DHT22;38766;53.194;5.532;2022-10-31T06:10:06;11.40;99.90
51557;DHT22;38766;53.194;5.532;2022-10-31T06:12:33;11.30;99.90
51557;DHT22;38766;53.194;5.532;2022-10-31T06:15:06;11.40;99.90
51557;DHT22;38766;53.194;5.532;2022-10-31T06:17:33;11.40;99.90
51557;DHT22;38766;53.194;5.532;2022-10-31T06:19:59;11.40;99.90
51557;DHT22;38766;53.194;5.532;2022-10-31T06:22:25;11.40;99.90
51557;DHT22;38766;53.194;5.532;2022-10-31T06:24:50;11.40;99.90
51557;DHT22;38766;53.194;5.532;2022-10-31T06:27:16;11.40;99.90
51557;DHT22;38766;53.194;5.532;2022-10-31T06:29:41;11.30;99.90
51557;DHT22;38766;53.194;5.532;2022-10-31T06:32:10;11.40;99.90
51557;DHT22;38766;53.194;5.532;2022-10-31T06:34:36;11.40;99.90
51557;DHT22;38766;53.194;5.532;2022-10-31T06:37:01;11.30;99.90
51557;DHT22;38766;53.194;5.532;2022-10-31T06:39:27;11.40;99.90
51557;DHT22;38766;53.194;5.532;2022-10-31T06:41:53;11.30;99.90
51557;DHT22;38766;53.194;5.532;2022-10-31T06:44:18;11.30;99.90
51557;DHT22;38766;53.194;5.532;2022-10-31T06:46:46;11.30;99.90
51557;DHT22;38766;53.194;5.532;2022-10-31T06:49:21;11.30;99.90
51557;DHT22;38766;53.194;5.532;2022-10-31T06:51:48;11.30;99.90
51557;DHT22;38766;53.194;5.532;2022-10-31T06:54:13;11.30;99.90
51557;DHT22;38766;53.194;5.532;2022-10-31T06:56:39;11.30;99.90
51557;DHT22;38766;53.194;5.532;2022-10-31T06:59:05;11.30;99.90
51557;DHT22;38766;53.194;5.532;2022-10-31T07:01:30;11.30;99.90
51557;DHT22;38766;53.194;5.532;2022-10-31T07:03:56;11.30;99.90
51557;DHT22;38766;53.194;5.532;2022-10-31T07:06:21;11.30;99.90
51557;DHT22;38766;53.194;5.532;2022-10-31T07:08:47;11.30;99.90
51557;DHT22;38766;53.194;5.532;2022-10-31T07:11:13;11.30;99.90
51557;DHT22;38766;53.194;5.532;2022-10-31T07:13:38;11.30;99.90
51557;DHT22;38766;53.194;5.532;2022-10-31T07:16:05;11.30;99.90
51557;DHT22;38766;53.194;5.532;2022-10-31T07:18:37;11.40;99.90
51557;DHT22;38766;53.194;5.532;2022-10-31T07:21:03;11.40;99.90
51557;DHT22;38766;53.194;5.532;2022-10-31T07:23:29;11.30;99.90
51557;DHT22;38766;53.194;5.532;2022-10-31T07:25:58;11.40;99.90
51557;DHT22;38766;53.194;5.532;2022-10-31T07:28:25;11.30;99.90
51557;DHT22;38766;53.194;5.532;2022-10-31T07:30:52;11.40;99.90
51557;DHT22;38766;53.194;5.532;2022-10-31T07:33:18;11.40;99.90
51557;DHT22;38766;53.194;5.532;2022-10-31T07:35:44;11.40;99.90
51557;DHT22;38766;53.194;5.532;2022-10-31T07:38:10;11.40;99.90
51557;DHT22;38766;53.194;5.532;2022-10-31T07:40:36;11.40;99.90
51557;DHT22;38766;53.194;5.532;2022-10-31T07:43:02;11.50;99.90
51557;DHT22;38766;53.194;5.532;2022-10-31T07:45:28;11.50;99.90
51557;DHT22;38766;53.194;5.532;2022-10-31T07:47:54;11.50;99.90
51557;DHT22;38766;53.194;5.532;2022-10-31T07:50:22;11.50;99.90
51557;DHT22;38766;53.194;5.532;2022-10-31T07:52:57;11.50;99.90
51557;DHT22;38766;53.194;5.532;2022-10-31T07:55:22;11.40;99.90
51557;DHT22;38766;53.194;5.532;2022-10-31T07:57:56;11.50;99.90
51557;DHT22;38766;53.194;5.532;2022-10-31T08:00:22;11.50;99.90
51557;DHT22;38766;53.194;5.532;2022-10-31T08:02:47;11.60;99.90
51557;DHT22;38766;53.194;5.532;2022-10-31T08:05:13;11.60;99.90
51557;DHT22;38766;53.194;5.532;2022-10-31T08:07:38;11.70;99.90
51557;DHT22;38766;53.194;5.532;2022-10-31T08:10:05;11.60;99.90
51557;DHT22;38766;53.194;5.532;2022-10-31T08:12:31;11.80;99.90
51557;DHT22;38766;53.194;5.532;2022-10-31T08:14:56;11.80;99.90
51557;DHT22;38766;53.194;5.532;2022-10-31T08:17:22;11.90;99.90
51557;DHT22;38766;53.194;5.532;2022-10-31T08:19:47;11.90;99.90
51557;DHT22;38766;53.194;5.532;2022-10-31T08:22:13;11.90;99.90
51557;DHT22;38766;53.194;5.532;2022-10-31T08:24:38;12.00;99.90
51557;DHT22;38766;53.194;5.532;2022-10-31T08:27:04;12.10;99.90
51557;DHT22;38766;53.194;5.532;2022-10-31T08:29:30;12.20;99.90
51557;DHT22;38766;53.194;5.532;2022-10-31T08:31:57;12.30;99.90
51557;DHT22;38766;53.194;5.532;2022-10-31T08:34:24;12.40;99.90
51557;DHT22;38766;53.194;5.532;2022-10-31T08:36:49;12.50;99.90
51557;DHT22;38766;53.194;5.532;2022-10-31T08:39:15;12.80;99.90
51557;DHT22;38766;53.194;5.532;2022-10-31T08:41:41;13.00;99.90
51557;DHT22;38766;53.194;5.532;2022-10-31T08:44:06;13.30;99.90
51557;DHT22;38766;53.194;5.532;2022-10-31T08:46:32;13.50;99.90
51557;DHT22;38766;53.194;5.532;2022-10-31T08:48:57;13.70;99.90
51557;DHT22;38766;53.194;5.532;2022-10-31T08:51:23;13.90;99.90
51557;DHT22;38766;53.194;5.532;2022-10-31T08:53:49;14.20;99.90
51557;DHT22;38766;53.194;5.532;2022-10-31T08:56:14;14.40;99.90
51557;DHT22;38766;53.194;5.532;2022-10-31T08:58:40;14.60;99.90
51557;DHT22;38766;53.194;5.532;2022-10-31T09:01:05;14.80;99.90
51557;DHT22;38766;53.194;5.532;2022-10-31T09:03:31;14.90;99.90
51557;DHT22;38766;53.194;5.532;2022-10-31T09:06:01;15.00;99.90
51557;DHT22;38766;53.194;5.532;2022-10-31T09:08:30;15.20;99.90
51557;DHT22;38766;53.194;5.532;2022-10-31T09:10:57;15.40;99.90
51557;DHT22;38766;53.194;5.532;2022-10-31T09:13:23;15.60;99.90
51557;DHT22;38766;53.194;5.532;2022-10-31T09:15:49;15.70;99.90
51557;DHT22;38766;53.194;5.532;2022-10-31T09:18:17;15.80;99.90
51557;DHT22;38766;53.194;5.532;2022-10-31T09:20:44;16.00;99.90
51557;DHT22;38766;53.194;5.532;2022-10-31T09:23:15;16.20;99.90
51557;DHT22;38766;53.194;5.532;2022-10-31T09:25:41;16.40;99.90
51557;DHT22;38766;53.194;5.532;2022-10-31T09:28:10;16.50;99.90
51557;DHT22;38766;53.194;5.532;2022-10-31T09:30:36;16.60;99.90
51557;DHT22;38766;53.194;5.532;2022-10-31T09:33:04;16.70;99.90
51557;DHT22;38766;53.194;5.532;2022-10-31T09:35:30;16.70;99.90
51557;DHT22;38766;53.194;5.532;2022-10-31T09:38:08;16.70;99.90
51557;DHT22;38766;53.194;5.532;2022-10-31T09:40:42;16.50;99.90
51557;DHT22;38766;53.194;5.532;2022-10-31T09:48:31;16.50;99.90
51557;DHT22;38766;53.194;5.532;2022-10-31T09:51:10;16.30;99.90
51557;DHT22;38766;53.194;5.532;2022-10-31T09:54:00;16.40;99.90
51557;DHT22;38766;53.194;5.532;2022-10-31T09:56:30;16.40;99.90
51557;DHT22;38766;53.194;5.532;2022-10-31T09:59:01;16.50;99.90
51557;DHT22;38766;53.194;5.532;2022-10-31T10:01:55;16.50;99.90
51557;DHT22;38766;53.194;5.532;2022-10-31T10:09:40;16.50;99.90
51557;DHT22;38766;53.194;5.532;2022-10-31T10:12:09;16.60;99.90
51557;DHT22;38766;53.194;5.532;2022-10-31T10:22:48;16.40;99.90
51557;DHT22;38766;53.194;5.532;2022-10-31T10:25:23;16.50;99.90
51557;DHT22;38766;53.194;5.532;2022-10-31T10:30:41;16.80;99.90
51557;DHT22;38766;53.194;5.532;2022-10-31T10:33:36;16.80;99.90
51557;DHT22;38766;53.194;5.532;2022-10-31T10:36:16;17.00;99.90
51557;DHT22;38766;53.194;5.532;2022-10-31T10:38:53;17.00;99.90
51557;DHT22;38766;53.194;5.532;2022-10-31T10:41:22;16.90;99.90
51557;DHT22;38766;53.194;5.532;2022-10-31T10:43:51;16.80;99.90
51557;DHT22;38766;53.194;5.532;2022-10-31T10:46:41;16.80;99.90
51557;DHT22;38766;53.194;5.532;2022-10-31T10:49:40;16.90;99.90
51557;DHT22;38766;53.194;5.532;2022-10-31T10:54:45;16.70;99.90
51557;DHT22;38766;53.194;5.532;2022-10-31T10:59:55;16.90;99.90
51557;DHT22;38766;53.194;5.532;2022-10-31T11:02:31;17.10;99.90
51557;DHT22;38766;53.194;5.532;2022-10-31T11:04:58;17.30;99.90
51557;DHT22;38766;53.194;5.532;2022-10-31T11:07:25;17.30;99.90
51557;DHT22;38766;53.194;5.532;2022-10-31T11:10:04;17.50;99.90
51557;DHT22;38766;53.194;5.532;2022-10-31T11:12:33;17.60;99.90
51557;DHT22;38766;53.194;5.532;2022-10-31T11:15:05;17.70;99.90
51557;DHT22;38766;53.194;5.532;2022-10-31T11:17:35;17.90;99.90
51557;DHT22;38766;53.194;5.532;2022-10-31T11:22:30;18.00;99.90
51557;DHT22;38766;53.194;5.532;2022-10-31T11:24:55;18.00;99.90
51557;DHT22;38766;53.194;5.532;2022-10-31T11:27:24;17.80;99.90
51557;DHT22;38766;53.194;5.532;2022-10-31T11:29:50;17.70;99.90
51557;DHT22;38766;53.194;5.532;2022-10-31T11:32:21;17.60;99.90
51557;DHT22;38766;53.194;5.532;2022-10-31T11:34:53;17.40;99.90
51557;DHT22;38766;53.194;5.532;2022-10-31T11:37:29;17.30;99.90
51557;DHT22;38766;53.194;5.532;2022-10-31T11:39:58;17.20;99.90
51557;DHT22;38766;53.194;5.532;2022-10-31T11:42:38;17.00;99.90
51557;DHT22;38766;53.194;5.532;2022-10-31T11:47:49;17.00;99.90
51557;DHT22;38766;53.194;5.532;2022-10-31T11:50:26;17.10;99.90
51557;DHT22;38766;53.194;5.532;2022-10-31T11:52:53;17.20;99.90
51557;DHT22;38766;53.194;5.532;2022-10-31T11:55:37;17.40;99.90
51557;DHT22;38766;53.194;5.532;2022-10-31T11:58:04;17.40;99.90
51557;DHT22;38766;53.194;5.532;2022-10-31T12:00:37;17.40;99.90
51557;DHT22;38766;53.194;5.532;2022-10-31T12:06:02;17.30;99.90
51557;DHT22;38766;53.194;5.532;2022-10-31T12:08:35;17.30;99.90
51557;DHT22;38766;53.194;5.532;2022-10-31T12:11:24;17.40;99.90
51557;DHT22;38766;53.194;5.532;2022-10-31T12:19:44;17.30;99.90
51557;DHT22;38766;53.194;5.532;2022-10-31T12:25:16;17.40;99.90
51557;DHT22;38766;53.194;5.532;2022-10-31T12:30:59;17.50;99.90
51557;DHT22;38766;53.194;5.532;2022-10-31T12:39:35;17.40;99.90
51557;DHT22;38766;53.194;5.532;2022-10-31T12:47:34;17.20;99.90
51557;DHT22;38766;53.194;5.532;2022-10-31T12:50:20;17.10;99.90
51557;DHT22;38766;53.194;5.532;2022-10-31T12:53:00;17.10;99.90
51557;DHT22;38766;53.194;5.532;2022-10-31T12:58:21;17.00;99.90
51557;DHT22;38766;53.194;5.532;2022-10-31T13:00:52;16.90;99.90
51557;DHT22;38766;53.194;5.532;2022-10-31T13:03:41;16.90;99.90
51557;DHT22;38766;53.194;5.532;2022-10-31T13:06:12;16.80;99.90
51557;DHT22;38766;53.194;5.532;2022-10-31T13:08:55;16.80;99.90
51557;DHT22;38766;53.194;5.532;2022-10-31T13:11:25;16.90;99.90
51557;DHT22;38766;53.194;5.532;2022-10-31T13:16:39;16.80;99.90
51557;DHT22;38766;53.194;5.532;2022-10-31T13:19:38;16.90;99.90
51557;DHT22;38766;53.194;5.532;2022-10-31T13:22:14;16.90;99.90
51557;DHT22;38766;53.194;5.532;2022-10-31T13:27:25;17.00;99.90
51557;DHT22;38766;53.194;5.532;2022-10-31T13:30:04;17.00;99.90
51557;DHT22;38766;53.194;5.532;2022-10-31T13:33:07;17.00;99.90
51557;DHT22;38766;53.194;5.532;2022-10-31T13:46:42;17.20;99.90
51557;DHT22;38766;53.194;5.532;2022-10-31T13:52:25;17.20;99.90
51557;DHT22;38766;53.194;5.532;2022-10-31T13:54:53;17.30;99.90
51557;DHT22;38766;53.194;5.532;2022-10-31T13:57:26;17.20;99.90
51557;DHT22;38766;53.194;5.532;2022-10-31T13:59:55;17.30;99.90
51557;DHT22;38766;53.194;5.532;2022-10-31T14:02:30;17.30;99.90
51557;DHT22;38766;53.194;5.532;2022-10-31T14:07:47;17.20;99.90
51557;DHT22;38766;53.194;5.532;2022-10-31T14:10:36;17.20;99.90
51557;DHT22;38766;53.194;5.532;2022-10-31T14:13:19;17.00;99.90
51557;DHT22;38766;53.194;5.532;2022-10-31T14:16:01;16.90;99.90
51557;DHT22;38766;53.194;5.532;2022-10-31T14:18:39;16.90;99.90
51557;DHT22;38766;53.194;5.532;2022-10-31T14:23:54;16.80;99.90
51557;DHT22;38766;53.194;5.532;2022-10-31T14:28:50;16.70;99.90
51557;DHT22;38766;53.194;5.532;2022-10-31T14:31:35;16.60;99.90
51557;DHT22;38766;53.194;5.532;2022-10-31T14:39:21;16.50;99.90
51557;DHT22;38766;53.194;5.532;2022-10-31T14:45:25;16.40;99.90
51557;DHT22;38766;53.194;5.532;2022-10-31T14:50:52;16.30;99.90
51557;DHT22;38766;53.194;5.532;2022-10-31T14:53:28;16.30;99.90
51557;DHT22;38766;53.194;5.532;2022-10-31T14:55:56;16.30;99.90
51557;DHT22;38766;53.194;5.532;2022-10-31T14:58:42;16.20;99.90
51557;DHT22;38766;53.194;5.532;2022-10-31T15:01:29;16.20;99.90
51557;DHT22;38766;53.194;5.532;2022-10-31T15:07:05;16.10;99.90
51557;DHT22;38766;53.194;5.532;2022-10-31T15:09:36;16.00;99.90
51557;DHT22;38766;53.194;5.532;2022-10-31T15:12:39;16.00;99.90
51557;DHT22;38766;53.194;5.532;2022-10-31T15:15:13;16.00;99.90
51557;DHT22;38766;53.194;5.532;2022-10-31T15:17:58;16.00;99.90
51557;DHT22;38766;53.194;5.532;2022-10-31T15:20:27;16.00;99.90
51557;DHT22;38766;53.194;5.532;2022-10-31T15:22:57;16.00;99.90
51557;DHT22;38766;53.194;5.532;2022-10-31T15:25:24;16.00;99.90
51557;DHT22;38766;53.194;5.532;2022-10-31T15:27:52;16.00;99.90
51557;DHT22;38766;53.194;5.532;2022-10-31T15:30:26;16.00;99.90
51557;DHT22;38766;53.194;5.532;2022-10-31T15:32:52;15.90;99.90
51557;DHT22;38766;53.194;5.532;2022-10-31T15:35:24;15.90;99.90
51557;DHT22;38766;53.194;5.532;2022-10-31T15:37:52;16.00;99.90
51557;DHT22;38766;53.194;5.532;2022-10-31T15:40:20;15.80;99.90
51557;DHT22;38766;53.194;5.532;2022-10-31T15:43:10;15.90;99.90
51557;DHT22;38766;53.194;5.532;2022-10-31T15:45:42;15.90;99.90
51557;DHT22;38766;53.194;5.532;2022-10-31T15:48:37;15.80;99.90
51557;DHT22;38766;53.194;5.532;2022-10-31T15:51:03;15.80;99.90
51557;DHT22;38766;53.194;5.532;2022-10-31T15:53:42;15.80;99.90
51557;DHT22;38766;53.194;5.532;2022-10-31T15:56:12;15.70;99.90
51557;DHT22;38766;53.194;5.532;2022-10-31T15:58:44;15.70;99.90
51557;DHT22;38766;53.194;5.532;2022-10-31T16:04:02;15.70;99.90
51557;DHT22;38766;53.194;5.532;2022-10-31T16:06:33;15.60;99.90
51557;DHT22;38766;53.194;5.532;2022-10-31T16:08:59;15.60;99.90
51557;DHT22;38766;53.194;5.532;2022-10-31T16:11:39;15.60;99.90
51557;DHT22;38766;53.194;5.532;2022-10-31T16:16:42;15.50;99.90
51557;DHT22;38766;53.194;5.532;2022-10-31T16:19:33;15.60;99.90
51557;DHT22;38766;53.194;5.532;2022-10-31T16:22:06;15.50;99.90
51557;DHT22;38766;53.194;5.532;2022-10-31T16:24:35;15.50;99.90
51557;DHT22;38766;53.194;5.532;2022-10-31T16:27:05;15.50;99.90
51557;DHT22;38766;53.194;5.532;2022-10-31T16:29:43;15.50;99.90
51557;DHT22;38766;53.194;5.532;2022-10-31T16:37:24;15.40;99.90
51557;DHT22;38766;53.194;5.532;2022-10-31T16:39:50;15.40;99.90
51557;DHT22;38766;53.194;5.532;2022-10-31T16:42:15;15.30;99.90
51557;DHT22;38766;53.194;5.532;2022-10-31T16:44:44;15.40;99.90
51557;DHT22;38766;53.194;5.532;2022-10-31T16:47:12;15.40;99.90
51557;DHT22;38766;53.194;5.532;2022-10-31T16:49:38;15.30;99.90
51557;DHT22;38766;53.194;5.532;2022-10-31T16:52:04;15.30;99.90
51557;DHT22;38766;53.194;5.532;2022-10-31T16:54:30;15.30;99.90
51557;DHT22;38766;53.194;5.532;2022-10-31T16:56:58;15.30;99.90
51557;DHT22;38766;53.194;5.532;2022-10-31T16:59:24;15.30;99.90
51557;DHT22;38766;53.194;5.532;2022-10-31T17:01:49;15.30;99.90
51557;DHT22;38766;53.194;5.532;2022-10-31T17:04:15;15.20;99.90
51557;DHT22;38766;53.194;5.532;2022-10-31T17:06:41;15.20;99.90
51557;DHT22;38766;53.194;5.532;2022-10-31T17:09:08;15.20;99.90
51557;DHT22;38766;53.194;5.532;2022-10-31T17:11:34;15.20;99.90
51557;DHT22;38766;53.194;5.532;2022-10-31T17:14:00;15.20;99.90
51557;DHT22;38766;53.194;5.532;2022-10-31T17:16:26;15.20;99.90
51557;DHT22;38766;53.194;5.532;2022-10-31T17:18:52;15.10;99.90
51557;DHT22;38766;53.194;5.532;2022-10-31T17:21:21;15.10;99.90
51557;DHT22;38766;53.194;5.532;2022-10-31T17:23:48;15.10;99.90
51557;DHT22;38766;53.194;5.532;2022-10-31T17:26:14;15.10;99.90
51557;DHT22;38766;53.194;5.532;2022-10-31T17:28:40;15.10;99.90
51557;DHT22;38766;53.194;5.532;2022-10-31T17:31:07;15.00;99.90
51557;DHT22;38766;53.194;5.532;2022-10-31T17:33:35;15.00;99.90
51557;DHT22;38766;53.194;5.532;2022-10-31T17:36:02;15.00;99.90
51557;DHT22;38766;53.194;5.532;2022-10-31T17:38:28;14.90;99.90
51557;DHT22;38766;53.194;5.532;2022-10-31T17:40:53;14.90;99.90
51557;DHT22;38766;53.194;5.532;2022-10-31T17:43:19;14.80;99.90
51557;DHT22;38766;53.194;5.532;2022-10-31T17:45:44;14.90;99.90
51557;DHT22;38766;53.194;5.532;2022-10-31T17:48:11;14.80;99.90
51557;DHT22;38766;53.194;5.532;2022-10-31T17:50:37;14.80;99.90
51557;DHT22;38766;53.194;5.532;2022-10-31T17:53:05;14.90;99.90
51557;DHT22;38766;53.194;5.532;2022-10-31T17:55:31;14.80;99.90
51557;DHT22;38766;53.194;5.532;2022-10-31T17:57:56;14.80;99.90
51557;DHT22;38766;53.194;5.532;2022-10-31T18:00:22;14.80;99.90
51557;DHT22;38766;53.194;5.532;2022-10-31T18:02:49;14.80;99.90
51557;DHT22;38766;53.194;5.532;2022-10-31T18:05:15;14.80;99.90